Time;durP1;ratioP1;P1;durP2;ratioP2;P2;SDS_P1;SDS_P2;PMS_P1;PMS_P2;Temp;Humidity;BMP_temperature;BMP_pressure;BME280_temperature;BME280_humidity;BME280_pressure;Samples;Min_cycle;Max_cycle;Signal;HPM_P1;HPM_P2
2021/05/18 00:03:17;;;;;;;0.68;0.47;;;14.00;80.30;;;;;;5123745;27;27408;-58
2021/05/18 00:06:23;;;;;;;0.50;0.50;;;13.90;80.40;;;;;;5126930;27;27969;-59
2021/05/18 00:13:06;;;;;;;1.33;0.85;;;13.90;80.50;;;;;;5108447;27;27439;-58
2021/05/18 00:16:07;;;;;;;1.60;0.80;;;13.90;80.50;;;;;;5110182;27;27372;-58
2021/05/18 00:19:19;;;;;;;1.02;0.55;;;13.80;80.60;;;;;;5126772;27;27514;-58
2021/05/18 00:22:39;;;;;;;0.63;0.63;;;13.80;80.60;;;;;;5123653;27;27378;-59
2021/05/18 00:26:06;;;;;;;1.00;0.50;;;13.80;80.90;;;;;;5108159;27;27420;-58
2021/05/18 00:29:32;;;;;;;1.75;0.65;;;13.80;81.20;;;;;;5125854;27;27481;-58
2021/05/18 00:32:39;;;;;;;0.73;0.50;;;13.70;80.90;;;;;;5125884;27;28066;-58
2021/05/18 00:36:07;;;;;;;0.70;0.52;;;13.70;81.00;;;;;;5126003;27;27431;-58
2021/05/18 00:39:54;;;;;;;1.33;0.50;;;13.70;80.90;;;;;;5126088;27;27420;-58
2021/05/18 00:43:21;;;;;;;1.85;0.68;;;13.70;81.00;;;;;;5126384;27;27435;-58
2021/05/18 00:46:48;;;;;;;1.40;0.75;;;13.70;81.00;;;;;;5126523;27;27514;-58
2021/05/18 00:49:46;;;;;;;0.47;0.40;;;13.70;81.10;;;;;;5109578;27;27399;-58
2021/05/18 00:53:14;;;;;;;2.25;0.50;;;13.70;81.20;;;;;;5107566;27;27439;-58
2021/05/18 01:00:44;;;;;;;2.08;0.75;;;13.70;81.10;;;;;;5126155;27;27333;-58
2021/05/18 01:03:50;;;;;;;1.60;0.70;;;13.60;81.70;;;;;;5125625;27;27462;-51
2021/05/18 01:07:18;;;;;;;1.38;0.57;;;13.60;81.10;;;;;;5125882;27;27376;-58
2021/05/18 01:10:50;;;;;;;1.75;0.95;;;13.60;81.30;;;;;;5105988;27;27336;-58
2021/05/18 01:14:18;;;;;;;2.67;0.70;;;13.60;81.60;;;;;;5122786;27;27455;-58
2021/05/18 01:18:10;;;;;;;1.08;0.70;;;13.60;81.80;;;;;;5122273;27;27387;-58
2021/05/18 01:21:18;;;;;;;0.38;0.38;;;13.60;81.60;;;;;;5122477;27;27419;-58
2021/05/18 01:24:19;;;;;;;1.00;0.57;;;13.60;81.90;;;;;;5125951;27;27324;-59
2021/05/18 01:27:47;;;;;;;4.05;0.80;;;13.60;81.90;;;;;;5125617;27;27439;-58
2021/05/18 01:31:57;;;;;;;1.33;0.57;;;13.60;81.90;;;;;;5121911;27;27431;-59
2021/05/18 01:35:08;;;;;;;0.90;0.55;;;13.50;82.00;;;;;;5124758;27;27435;-59
2021/05/18 01:38:50;;;;;;;1.90;0.65;;;13.50;82.00;;;;;;5106998;27;27402;-59
2021/05/18 01:45:34;;;;;;;0.70;0.50;;;13.50;82.30;;;;;;5122433;27;27643;-58
2021/05/18 01:48:48;;;;;;;3.83;0.52;;;13.50;82.30;;;;;;5106811;27;27436;-58
2021/05/18 01:52:02;;;;;;;0.85;0.45;;;13.50;82.40;;;;;;5108777;27;27608;-58
2021/05/18 01:55:11;;;;;;;1.15;0.70;;;13.50;82.00;;;;;;5121775;27;27442;-58
2021/05/18 01:58:41;;;;;;;1.67;0.50;;;13.50;82.50;;;;;;5092561;27;27432;-58
2021/05/18 02:02:26;;;;;;;1.00;0.63;;;13.50;82.40;;;;;;5124858;27;27470;-59
2021/05/18 02:06:00;;;;;;;1.52;0.52;;;13.50;82.50;;;;;;5102138;28;27515;-59
2021/05/18 02:09:44;;;;;;;2.17;0.52;;;13.40;82.40;;;;;;5100671;28;27893;-58
2021/05/18 02:12:48;;;;;;;2.25;0.70;;;13.40;82.50;;;;;;5103353;28;27444;-58
2021/05/18 02:16:07;;;;;;;1.80;0.40;;;13.40;82.60;;;;;;5065319;28;27530;-58
2021/05/18 02:19:52;;;;;;;1.35;0.60;;;13.40;82.70;;;;;;5101040;28;27377;-57
2021/05/18 02:27:07;;;;;;;0.95;0.45;;;13.40;82.90;;;;;;5101148;28;27367;-58
2021/05/18 02:29:52;;;;;;;1.17;0.50;;;13.40;83.00;;;;;;5102989;28;27493;-56
2021/05/18 02:32:59;;;;;;;1.10;0.45;;;13.30;82.60;;;;;;5099913;28;27478;-59
2021/05/18 02:36:17;;;;;;;0.80;0.55;;;13.40;82.60;;;;;;5100866;28;27540;-59
2021/05/18 02:39:44;;;;;;;2.17;0.45;;;13.40;82.70;;;;;;5104175;28;27414;-59
2021/05/18 02:43:10;;;;;;;2.20;1.45;;;13.40;82.60;;;;;;5100668;28;27368;-58
2021/05/18 02:50:08;;;;;;;0.40;0.40;;;13.30;83.10;;;;;;5100170;28;27875;-58
2021/05/18 02:53:37;;;;;;;0.32;0.32;;;13.30;82.60;;;;;;5099620;28;27551;-58
2021/05/18 02:56:52;;;;;;;6.00;0.50;;;13.30;82.90;;;;;;5102819;28;27427;-58
2021/05/18 03:00:19;;;;;;;0.40;0.20;;;13.30;83.00;;;;;;5104023;28;27426;-58
2021/05/18 03:03:27;;;;;;;1.65;0.45;;;13.30;82.70;;;;;;5103120;28;27483;-58
2021/05/18 03:06:54;;;;;;;0.50;0.50;;;13.30;82.90;;;;;;5101630;28;27337;-56
2021/05/18 03:10:23;;;;;;;1.50;1.02;;;13.30;83.10;;;;;;5101722;28;27609;-58
2021/05/18 03:13:49;;;;;;;5.10;3.42;;;13.30;83.50;;;;;;5103480;28;27462;-58
2021/05/18 03:16:56;;;;;;;5.32;3.33;;;13.20;83.30;;;;;;5103504;28;27967;-58
2021/05/18 03:20:06;;;;;;;5.55;2.95;;;13.20;83.30;;;;;;5102819;28;27318;-58
2021/05/18 03:23:12;;;;;;;3.67;2.00;;;13.20;83.20;;;;;;5100114;28;27327;-57
2021/05/18 03:26:32;;;;;;;4.07;2.00;;;13.20;83.30;;;;;;5100042;28;27411;-58
2021/05/18 03:30:22;;;;;;;1.88;1.30;;;13.20;83.50;;;;;;5081922;28;27855;-58
2021/05/18 03:36:46;;;;;;;1.52;1.08;;;13.20;83.30;;;;;;5106792;28;27418;-58
2021/05/18 03:39:54;;;;;;;0.93;0.80;;;13.20;83.30;;;;;;5105681;28;27472;-58
2021/05/18 03:42:58;;;;;;;2.88;1.15;;;13.10;83.20;;;;;;5106139;28;27414;-58
2021/05/18 04:04:54;;;;;;;0.75;0.60;;;13.10;84.00;;;;;;5108683;27;27628;-58
2021/05/18 04:19:25;;;;;;;1.02;0.70;;;13.10;84.50;;;;;;5124381;27;27379;-58
2021/05/18 04:23:17;;;;;;;1.30;0.80;;;13.10;84.50;;;;;;5127541;27;27485;-56
2021/05/18 04:38:33;;;;;;;0.60;0.60;;;13.10;84.60;;;;;;5127707;27;27475;-58
2021/05/18 04:55:05;;;;;;;0.90;0.60;;;13.00;84.70;;;;;;5127189;27;28004;-58
2021/05/18 05:15:40;;;;;;;0.85;0.57;;;13.00;85.40;;;;;;5126735;27;27324;-58
2021/05/18 05:19:30;;;;;;;2.30;0.70;;;13.00;84.80;;;;;;5126396;27;27335;-58
2021/05/18 05:22:27;;;;;;;0.85;0.77;;;13.00;83.50;;;;;;5125517;27;28042;-59
2021/05/18 05:25:55;;;;;;;0.82;0.57;;;13.00;85.10;;;;;;5123457;27;27355;-60
2021/05/18 05:28:52;;;;;;;3.28;0.93;;;13.00;84.50;;;;;;5125518;27;27582;-59
2021/05/18 05:32:19;;;;;;;3.60;1.40;;;13.00;84.00;;;;;;5126734;27;27410;-58
2021/05/18 05:35:36;;;;;;;0.82;0.80;;;13.00;84.70;;;;;;5126307;27;27445;-58
2021/05/18 05:38:30;;;;;;;0.90;0.68;;;12.90;84.90;;;;;;5125982;27;27419;-55
2021/05/18 05:41:41;;;;;;;2.80;0.70;;;12.90;84.70;;;;;;5122985;27;27571;-59
2021/05/18 05:44:55;;;;;;;1.92;0.70;;;12.90;84.00;;;;;;5109263;27;27390;-59
2021/05/18 05:48:02;;;;;;;1.40;0.60;;;12.90;85.60;;;;;;5122806;27;27321;-59
2021/05/18 05:51:09;;;;;;;2.65;0.70;;;12.90;84.20;;;;;;5126069;27;27352;-60
2021/05/18 05:54:36;;;;;;;2.75;0.88;;;13.00;85.50;;;;;;5124873;27;27410;-59
2021/05/18 05:57:47;;;;;;;2.08;0.70;;;13.00;85.00;;;;;;5125658;27;27447;-59
2021/05/18 06:01:13;;;;;;;1.75;0.80;;;13.00;84.50;;;;;;5125453;27;27582;-60
2021/05/18 06:04:20;;;;;;;2.38;0.75;;;12.90;84.50;;;;;;5124925;27;27408;-60
2021/05/18 06:07:46;;;;;;;1.88;0.70;;;13.00;84.70;;;;;;5125673;27;27632;-59
2021/05/18 06:10:42;;;;;;;4.35;1.17;;;13.00;84.70;;;;;;5110166;27;27485;-55
2021/05/18 06:49:17;;;;;;;1.02;0.93;;;13.50;85.40;;;;;;5125129;27;27536;-58
2021/05/18 06:52:45;;;;;;;1.13;0.90;;;13.60;85.80;;;;;;5125483;27;27371;-58
2021/05/18 06:56:05;;;;;;;2.03;1.67;;;13.60;85.90;;;;;;5125201;27;27407;-58
2021/05/18 07:01:56;;;;;;;1.90;0.90;;;13.70;86.20;;;;;;5124931;27;27318;-57
2021/05/18 07:05:14;;;;;;;2.30;0.98;;;13.80;86.00;;;;;;5124177;27;27041;-58
2021/05/18 07:11:40;;;;;;;0.50;0.50;;;14.00;85.90;;;;;;5128498;27;27525;-58
2021/05/18 07:15:07;;;;;;;3.33;1.20;;;14.10;86.10;;;;;;5109923;27;27006;-58
2021/05/18 07:18:13;;;;;;;2.92;0.70;;;14.10;86.60;;;;;;5128549;27;27439;-58
2021/05/18 07:21:41;;;;;;;1.38;1.05;;;14.10;87.00;;;;;;5128699;27;27439;-57
2021/05/18 07:25:01;;;;;;;1.52;0.82;;;14.20;86.90;;;;;;5128378;27;27364;-58
2021/05/18 07:28:27;;;;;;;0.80;0.65;;;14.30;88.00;;;;;;5128444;27;27481;-58
2021/05/18 07:31:15;;;;;;;0.93;0.68;;;14.40;87.30;;;;;;5128618;27;27398;-58
2021/05/18 07:34:12;;;;;;;0.50;0.50;;;14.40;86.30;;;;;;5113286;27;27403;-58
2021/05/18 07:37:19;;;;;;;1.23;0.70;;;14.40;85.40;;;;;;5128208;27;27463;-58
2021/05/18 07:40:46;;;;;;;1.52;1.20;;;14.30;85.70;;;;;;5128100;27;27462;-57
2021/05/18 07:44:00;;;;;;;2.10;1.10;;;14.30;85.30;;;;;;5126787;27;27407;-58
2021/05/18 07:46:55;;;;;;;0.88;0.80;;;14.30;86.00;;;;;;5128342;27;27914;-58
2021/05/18 07:50:05;;;;;;;1.00;0.90;;;14.30;84.90;;;;;;5128386;27;27399;-58
2021/05/18 08:00:38;;;;;;;1.83;0.70;;;14.50;87.60;;;;;;5127828;27;27415;-58
2021/05/18 08:06:56;;;;;;;0.85;0.68;;;14.60;85.40;;;;;;5040404;28;27572;-58
2021/05/18 08:09:58;;;;;;;5.15;0.73;;;14.60;84.90;;;;;;5086807;28;27406;-58
2021/05/18 08:13:26;;;;;;;3.58;0.60;;;14.60;83.90;;;;;;5086930;28;27828;-58
2021/05/18 10:22:24;;;;;;;0.88;0.40;;;22.30;69.50;;;;;;5063697;27;27579;-54
2021/05/18 10:34:40;;;;;;;0.88;0.40;;;23.30;69.00;;;;;;5093789;27;27515;-58
2021/05/18 10:37:46;;;;;;;0.93;0.55;;;23.10;67.90;;;;;;5125426;27;27427;-58
2021/05/18 10:40:51;;;;;;;1.05;0.70;;;22.50;67.90;;;;;;5125651;27;27457;-58
2021/05/18 10:44:00;;;;;;;1.40;0.80;;;22.20;67.50;;;;;;5122042;27;27447;-58
2021/05/18 10:46:49;;;;;;;1.15;0.55;;;21.90;64.90;;;;;;5125044;27;27396;-58
2021/05/18 10:49:36;;;;;;;2.60;0.73;;;21.60;64.50;;;;;;5125212;27;27391;-57
2021/05/18 10:52:36;;;;;;;4.00;0.50;;;21.30;67.40;;;;;;5122229;27;27434;-58
2021/05/18 10:56:07;;;;;;;1.83;0.60;;;21.10;69.70;;;;;;5125196;27;27426;-58
2021/05/18 10:59:17;;;;;;;2.03;0.60;;;21.00;68.40;;;;;;5121791;27;27317;-58
2021/05/18 11:02:38;;;;;;;1.30;0.60;;;20.80;71.30;;;;;;5121839;27;27401;-57
2021/05/18 11:05:55;;;;;;;1.20;0.35;;;20.80;70.50;;;;;;5103067;28;27438;-59
2021/05/18 11:09:07;;;;;;;0.90;0.50;;;20.80;71.70;;;;;;5104115;28;28013;-57
2021/05/18 11:12:19;;;;;;;0.40;0.30;;;20.90;72.10;;;;;;5104623;28;27454;-55
2021/05/18 11:15:24;;;;;;;3.40;0.55;;;21.10;70.40;;;;;;5101106;28;27468;-58
2021/05/18 11:18:30;;;;;;;1.02;0.50;;;21.20;70.00;;;;;;5104314;28;27458;-58
2021/05/18 11:21:35;;;;;;;0.70;0.43;;;21.10;68.40;;;;;;5104337;28;27938;-58
2021/05/18 11:24:52;;;;;;;1.95;0.38;;;21.10;69.90;;;;;;5104184;28;27415;-58
2021/05/18 11:28:04;;;;;;;2.20;0.50;;;21.00;69.80;;;;;;5104230;28;27435;-58
2021/05/18 11:31:17;;;;;;;4.68;0.43;;;20.80;70.80;;;;;;5102848;28;27474;-58
2021/05/18 11:34:09;;;;;;;1.98;0.60;;;20.60;66.10;;;;;;5104357;28;27365;-59
2021/05/18 11:37:15;;;;;;;3.83;0.50;;;20.30;65.10;;;;;;5103555;28;27367;-58
2021/05/18 11:40:32;;;;;;;1.73;0.47;;;20.20;65.30;;;;;;5103996;28;27405;-58
2021/05/18 11:43:44;;;;;;;1.50;0.40;;;20.10;67.50;;;;;;5103247;28;27432;-58
2021/05/18 11:46:49;;;;;;;2.42;0.30;;;20.00;68.90;;;;;;5103873;28;27408;-58
2021/05/18 11:50:06;;;;;;;1.27;0.40;;;20.10;70.80;;;;;;5103738;28;27402;-58
2021/05/18 11:53:20;;;;;;;1.90;0.52;;;20.40;72.50;;;;;;5104267;27;27395;-58
2021/05/18 11:56:24;;;;;;;0.82;0.30;;;20.60;72.80;;;;;;5107856;28;27412;-58
2021/05/18 11:59:15;;;;;;;0.73;0.40;;;20.60;74.80;;;;;;5107316;28;27927;-58
2021/05/18 12:02:43;;;;;;;0.30;0.30;;;20.60;71.70;;;;;;5107313;28;27403;-58
2021/05/18 12:05:50;;;;;;;0.82;0.40;;;20.40;71.80;;;;;;5120603;27;27598;-56
2021/05/18 12:08:39;;;;;;;2.40;0.60;;;20.20;73.30;;;;;;5128003;27;27320;-58
2021/05/18 12:11:53;;;;;;;1.13;0.47;;;20.00;72.80;;;;;;5127665;27;27453;-57
2021/05/18 12:14:47;;;;;;;0.55;0.40;;;19.80;72.60;;;;;;5127903;27;27450;-56
2021/05/18 12:18:00;;;;;;;2.30;0.63;;;19.60;72.30;;;;;;5127803;27;27393;-57
2021/05/18 12:21:12;;;;;;;1.48;0.65;;;19.40;71.80;;;;;;5127574;27;27416;-55
2021/05/18 12:24:12;;;;;;;1.33;0.50;;;19.20;73.60;;;;;;5110801;27;27470;-56
2021/05/18 12:27:32;;;;;;;0.50;0.40;;;19.20;75.60;;;;;;5112157;27;27396;-58
2021/05/18 12:30:50;;;;;;;0.50;0.50;;;19.40;77.00;;;;;;5126966;27;27404;-58
2021/05/18 12:33:58;;;;;;;3.72;1.77;;;19.70;79.50;;;;;;5127419;27;27398;-56
2021/05/18 12:37:28;;;;;;;3.70;1.38;;;19.90;79.30;;;;;;5126677;27;27418;-58
2021/05/18 12:40:20;;;;;;;3.78;2.10;;;20.00;78.20;;;;;;5126705;27;27337;-57
2021/05/18 12:43:37;;;;;;;1.20;0.75;;;20.00;77.00;;;;;;5123972;27;27456;-57
2021/05/18 12:46:49;;;;;;;3.20;1.35;;;19.90;70.40;;;;;;5127476;27;27462;-58
2021/05/18 12:50:21;;;;;;;2.55;1.58;;;19.70;70.60;;;;;;5126789;27;27431;-55
2021/05/18 12:53:24;;;;;;;2.10;1.38;;;19.50;71.40;;;;;;5125836;27;27371;-57
2021/05/18 12:56:32;;;;;;;6.03;1.20;;;19.50;72.30;;;;;;5126950;27;27356;-58
2021/05/18 13:00:09;;;;;;;1.00;0.88;;;19.60;73.60;;;;;;5126572;27;27493;-58
2021/05/18 13:04:09;;;;;;;1.20;0.73;;;19.80;76.70;;;;;;5125347;27;27479;-56
2021/05/18 13:07:34;;;;;;;0.77;0.45;;;20.10;75.00;;;;;;5126468;27;27332;-58
2021/05/18 13:13:49;;;;;;;0.82;0.40;;;20.20;70.60;;;;;;5127027;27;27323;-58
2021/05/18 13:17:10;;;;;;;0.60;0.30;;;20.30;70.70;;;;;;5126112;27;27430;-58
2021/05/18 13:20:22;;;;;;;0.93;0.40;;;20.50;69.40;;;;;;5108288;27;27463;-58
2021/05/18 13:26:43;;;;;;;0.60;0.30;;;20.70;72.10;;;;;;5123241;27;27406;-57
2021/05/18 13:29:29;;;;;;;0.70;0.32;;;20.80;68.10;;;;;;5126171;27;28113;-58
2021/05/18 13:32:43;;;;;;;0.80;0.40;;;20.80;69.10;;;;;;5111500;27;27606;-57
2021/05/18 13:35:56;;;;;;;0.73;0.20;;;20.80;69.20;;;;;;5125860;27;27331;-58
2021/05/18 13:39:08;;;;;;;2.25;0.30;;;20.80;67.70;;;;;;5126648;27;26870;-54
2021/05/18 13:42:00;;;;;;;0.45;0.32;;;20.80;65.10;;;;;;5122922;27;27872;-57
2021/05/18 13:45:31;;;;;;;0.60;0.40;;;20.80;63.80;;;;;;5126214;27;27414;-57
2021/05/18 13:48:43;;;;;;;0.43;0.30;;;20.80;63.90;;;;;;5122926;27;27525;-57
2021/05/18 13:51:49;;;;;;;0.65;0.40;;;20.80;62.80;;;;;;5125898;27;27403;-57
2021/05/18 13:55:16;;;;;;;0.77;0.30;;;20.70;62.60;;;;;;5126203;27;27416;-58
2021/05/18 13:58:33;;;;;;;0.40;0.30;;;20.70;63.00;;;;;;5125708;27;27441;-57
2021/05/18 14:01:48;;;;;;;0.60;0.60;;;20.70;65.00;;;;;;5126055;27;27402;-57
2021/05/18 14:05:05;;;;;;;0.82;0.45;;;20.70;65.00;;;;;;5124208;27;27367;-56
2021/05/18 14:08:25;;;;;;;0.90;0.30;;;20.70;64.20;;;;;;5125875;27;27877;-57
2021/05/18 14:11:53;;;;;;;0.25;0.20;;;20.70;64.60;;;;;;5125767;27;27439;-57
2021/05/18 14:15:19;;;;;;;0.85;0.73;;;20.60;64.40;;;;;;5110417;27;27363;-57
2021/05/18 14:18:51;;;;;;;0.65;0.30;;;20.60;63.10;;;;;;5125008;27;27494;-57
2021/05/18 14:21:57;;;;;;;1.30;0.30;;;20.60;62.70;;;;;;5125377;27;27485;-57
2021/05/18 14:24:54;;;;;;;1.58;0.47;;;20.60;62.90;;;;;;5122268;27;27462;-50
2021/05/18 14:27:46;;;;;;;1.65;0.50;;;20.70;62.40;;;;;;5125925;27;27334;-55
2021/05/18 14:30:56;;;;;;;0.52;0.28;;;20.60;62.40;;;;;;5121980;27;27460;-57
2021/05/18 14:34:19;;;;;;;1.38;0.35;;;20.60;61.70;;;;;;5125538;27;27379;-57
2021/05/18 14:37:05;;;;;;;0.35;0.35;;;20.50;62.80;;;;;;5125714;27;27333;-50
2021/05/18 14:40:23;;;;;;;0.22;0.20;;;20.50;64.30;;;;;;5125433;27;27376;-56
2021/05/18 14:44:08;;;;;;;0.52;0.32;;;20.50;64.80;;;;;;5072319;27;27369;-55
2021/05/18 14:47:05;;;;;;;0.63;0.38;;;20.50;64.20;;;;;;5125313;27;27414;-57
2021/05/18 14:56:33;;;;;;;2.00;0.32;;;20.50;64.40;;;;;;5125199;27;27401;-57
2021/05/18 14:59:19;;;;;;;1.00;0.28;;;20.40;65.10;;;;;;5125363;27;27381;-54
2021/05/18 15:02:46;;;;;;;0.52;0.40;;;20.30;64.80;;;;;;5125309;27;27393;-55
2021/05/18 15:06:00;;;;;;;0.30;0.20;;;20.30;64.60;;;;;;5124184;27;27584;-57
2021/05/18 15:09:27;;;;;;;0.45;0.30;;;20.20;65.60;;;;;;5124840;27;27333;-56
2021/05/18 15:12:35;;;;;;;1.23;0.30;;;20.10;66.50;;;;;;5124584;27;27585;-56
2021/05/18 15:15:32;;;;;;;0.88;0.85;;;20.10;66.80;;;;;;5124605;27;27496;-56
2021/05/18 15:18:31;;;;;;;2.58;0.50;;;20.10;66.60;;;;;;5125224;27;27445;-52
2021/05/18 15:21:38;;;;;;;1.35;0.40;;;20.00;66.20;;;;;;5124890;27;27380;-55
2021/05/18 15:24:52;;;;;;;1.40;0.40;;;19.90;65.10;;;;;;5125024;27;27408;-56
2021/05/18 15:28:26;;;;;;;1.02;0.32;;;19.90;64.70;;;;;;5121436;27;27407;-57
2021/05/18 15:31:18;;;;;;;3.13;0.47;;;19.70;65.70;;;;;;5126955;27;27370;-57
2021/05/18 15:34:11;;;;;;;1.02;0.63;;;19.60;64.90;;;;;;5128626;27;27350;-56
2021/05/18 15:37:21;;;;;;;1.30;0.60;;;19.50;66.50;;;;;;5128600;27;27403;-56
2021/05/18 15:40:26;;;;;;;0.70;0.60;;;19.30;66.40;;;;;;5127337;27;27513;-56
2021/05/18 15:43:53;;;;;;;0.65;0.50;;;19.20;66.90;;;;;;5128571;27;27408;-56
2021/05/18 15:47:04;;;;;;;1.80;0.60;;;19.10;66.60;;;;;;5125129;27;27464;-55
2021/05/18 15:50:31;;;;;;;0.40;0.40;;;19.10;66.80;;;;;;5127829;27;27831;-55
2021/05/18 15:53:46;;;;;;;2.85;0.57;;;19.00;66.90;;;;;;5128380;27;27399;-56
2021/05/18 15:57:12;;;;;;;1.67;0.50;;;18.90;66.50;;;;;;5128277;27;27390;-56
2021/05/18 16:00:24;;;;;;;3.35;0.43;;;18.90;66.70;;;;;;5128262;27;27323;-56
2021/05/18 16:03:51;;;;;;;1.35;0.50;;;18.90;65.80;;;;;;5127938;27;27407;-55
2021/05/18 16:07:11;;;;;;;0.60;0.57;;;18.80;65.90;;;;;;5127800;27;27427;-57
2021/05/18 16:10:12;;;;;;;0.77;0.50;;;18.80;64.40;;;;;;5127982;27;27477;-57
2021/05/18 16:12:58;;;;;;;1.10;0.55;;;18.70;65.60;;;;;;5124813;27;27363;-57
2021/05/18 16:16:25;;;;;;;1.73;0.85;;;18.70;65.70;;;;;;5127954;27;27349;-56
2021/05/18 16:19:57;;;;;;;1.00;0.60;;;18.60;64.60;;;;;;5127672;27;27396;-56
2021/05/18 16:23:24;;;;;;;1.10;0.57;;;18.60;63.60;;;;;;5127669;27;27390;-56
2021/05/18 16:26:30;;;;;;;0.85;0.60;;;18.50;64.40;;;;;;5126915;27;27469;-55
2021/05/18 16:29:44;;;;;;;0.77;0.52;;;18.40;64.10;;;;;;5124248;27;27392;-56
2021/05/18 16:33:22;;;;;;;0.63;0.47;;;18.30;63.40;;;;;;5126600;27;27438;-55
2021/05/18 16:36:28;;;;;;;1.13;0.70;;;18.30;64.00;;;;;;5126584;27;27487;-57
2021/05/18 16:39:39;;;;;;;0.80;0.50;;;18.20;64.90;;;;;;5127067;27;27392;-56
2021/05/18 16:42:46;;;;;;;1.40;0.60;;;18.10;65.20;;;;;;5126584;27;27425;-56
2021/05/18 16:45:57;;;;;;;2.35;0.85;;;18.10;66.30;;;;;;5127022;27;27407;-54
2021/05/18 16:49:08;;;;;;;1.23;0.50;;;18.00;66.90;;;;;;5126679;27;27458;-54
2021/05/18 16:52:05;;;;;;;1.13;0.45;;;18.00;66.60;;;;;;5125635;27;27428;-55
2021/05/18 16:55:32;;;;;;;0.93;0.45;;;18.00;67.10;;;;;;5127263;27;27845;-57
2021/05/18 16:58:35;;;;;;;0.98;0.65;;;18.00;66.30;;;;;;5126604;27;27419;-56
2021/05/18 17:02:01;;;;;;;2.10;0.57;;;18.00;65.70;;;;;;5127010;27;27325;-57
2021/05/18 17:05:15;;;;;;;2.85;0.60;;;18.00;65.50;;;;;;5126438;27;27422;-50
2021/05/18 17:08:41;;;;;;;2.83;0.93;;;18.00;64.90;;;;;;5126801;27;27378;-57
2021/05/18 17:11:55;;;;;;;1.40;0.60;;;17.90;63.90;;;;;;5126330;27;27375;-56
2021/05/18 17:15:03;;;;;;;2.92;0.82;;;17.80;63.40;;;;;;5126362;27;27389;-56
2021/05/18 17:18:17;;;;;;;1.40;0.68;;;17.70;63.70;;;;;;5126581;27;27408;-51
2021/05/18 17:21:29;;;;;;;5.60;0.70;;;17.70;64.70;;;;;;5126605;27;27335;-56
2021/05/18 17:24:30;;;;;;;1.33;0.75;;;17.60;64.90;;;;;;5126518;27;27494;-56
2021/05/18 17:27:41;;;;;;;2.28;0.40;;;17.50;65.50;;;;;;5126657;27;27470;-55
2021/05/18 17:30:41;;;;;;;1.48;1.00;;;17.40;67.20;;;;;;5122962;27;27411;-57
2021/05/18 17:33:44;;;;;;;1.10;0.52;;;17.30;67.80;;;;;;5126329;27;27504;-56
2021/05/18 17:36:50;;;;;;;2.13;0.75;;;17.20;68.00;;;;;;5126314;27;27524;-51
2021/05/18 17:40:02;;;;;;;0.82;0.60;;;17.20;69.10;;;;;;5126612;27;27465;-56
2021/05/18 17:43:09;;;;;;;0.63;0.40;;;17.10;68.40;;;;;;5110486;27;27649;-56
2021/05/18 17:46:09;;;;;;;0.50;0.40;;;17.10;69.10;;;;;;5126027;27;27465;-56
2021/05/18 17:49:08;;;;;;;0.88;0.60;;;17.00;68.50;;;;;;5085517;27;27703;-49
2021/05/18 17:52:14;;;;;;;2.53;1.02;;;16.90;67.80;;;;;;5125522;27;27479;-55
2021/05/18 17:55:10;;;;;;;0.57;0.43;;;16.90;68.60;;;;;;5126007;27;27640;-54
2021/05/18 17:58:36;;;;;;;1.58;0.30;;;16.80;68.70;;;;;;5126199;27;27832;-55
2021/05/18 18:01:48;;;;;;;2.22;0.63;;;16.80;69.50;;;;;;5124664;27;27498;-55
2021/05/18 18:04:48;;;;;;;1.60;0.60;;;16.70;68.90;;;;;;5125454;27;27570;-56
2021/05/18 18:07:59;;;;;;;1.15;0.73;;;16.60;68.80;;;;;;5126156;27;27386;-56
2021/05/18 18:11:46;;;;;;;4.32;1.02;;;16.60;68.30;;;;;;5122107;27;27443;-56
2021/05/18 18:15:18;;;;;;;0.88;0.47;;;16.60;68.40;;;;;;5125994;27;27316;-58
2021/05/18 18:18:08;;;;;;;1.42;0.60;;;16.50;68.50;;;;;;5122429;27;27459;-53
2021/05/18 18:21:14;;;;;;;0.52;0.50;;;16.50;68.90;;;;;;5125958;27;27340;-54
2021/05/18 18:24:20;;;;;;;1.42;0.68;;;16.50;69.50;;;;;;5125200;27;27403;-56
2021/05/18 18:27:35;;;;;;;2.58;0.50;;;16.40;69.20;;;;;;5125575;27;27324;-57
2021/05/18 18:31:21;;;;;;;0.70;0.50;;;16.40;70.40;;;;;;5125001;27;27474;-58
2021/05/18 18:34:43;;;;;;;2.25;0.55;;;16.30;70.10;;;;;;5125202;27;27344;-57
2021/05/18 18:37:50;;;;;;;2.58;0.88;;;16.20;70.20;;;;;;5125904;27;27391;-58
2021/05/18 18:40:56;;;;;;;2.17;0.90;;;16.20;70.40;;;;;;5125261;27;27402;-56
2021/05/18 18:44:02;;;;;;;2.13;1.73;;;16.10;71.40;;;;;;5125370;27;27410;-56
2021/05/18 18:47:29;;;;;;;1.27;0.90;;;16.10;72.50;;;;;;5124749;27;27494;-56
2021/05/18 18:51:16;;;;;;;2.85;0.80;;;16.00;72.10;;;;;;5124077;27;27469;-56
2021/05/18 18:54:08;;;;;;;1.10;0.60;;;16.00;73.50;;;;;;5124831;27;27405;-56
2021/05/18 18:57:35;;;;;;;1.63;0.90;;;15.90;73.10;;;;;;5125417;27;27321;-56
2021/05/18 19:00:40;;;;;;;1.00;0.80;;;15.80;73.80;;;;;;5125046;27;27415;-56
2021/05/18 19:03:56;;;;;;;1.48;0.80;;;15.80;73.90;;;;;;5124067;27;27393;-56
2021/05/18 19:11:03;;;;;;;1.95;1.35;;;15.70;74.70;;;;;;5121698;27;27405;-56
2021/05/18 19:14:30;;;;;;;1.88;1.42;;;15.60;76.00;;;;;;5125215;27;27432;-56
2021/05/18 19:17:50;;;;;;;2.80;1.92;;;15.50;75.50;;;;;;5124272;27;27435;-56
2021/05/18 19:20:56;;;;;;;4.68;2.15;;;15.50;75.50;;;;;;5083366;27;27414;-56
2021/05/18 19:24:13;;;;;;;4.55;3.28;;;15.50;76.20;;;;;;5124314;27;27387;-57
2021/05/18 19:27:50;;;;;;;7.75;4.50;;;15.40;75.80;;;;;;5121468;27;27424;-57
2021/05/18 19:31:23;;;;;;;6.25;3.10;;;15.30;75.40;;;;;;5124680;27;27370;-56
2021/05/18 19:34:19;;;;;;;5.82;2.88;;;15.30;76.40;;;;;;5124218;27;27424;-54
2021/05/18 19:44:51;;;;;;;3.28;2.17;;;15.10;76.10;;;;;;5124164;27;27551;-54
2021/05/18 19:48:25;;;;;;;3.95;2.38;;;15.00;76.60;;;;;;5124738;27;27391;-55
2021/05/18 19:51:31;;;;;;;6.05;2.55;;;15.00;75.40;;;;;;5123952;27;27468;-57
2021/05/18 19:54:44;;;;;;;5.22;2.63;;;14.90;76.20;;;;;;5124411;27;27378;-56
2021/05/18 20:20:06;;;;;;;3.22;2.25;;;14.60;77.30;;;;;;5095460;27;27361;-55
2021/05/18 20:23:33;;;;;;;3.92;2.65;;;14.60;77.10;;;;;;5127323;27;27408;-56
2021/05/18 20:27:00;;;;;;;4.47;3.38;;;14.60;77.10;;;;;;5126880;27;27862;-54
2021/05/18 20:30:06;;;;;;;8.82;3.88;;;14.50;77.30;;;;;;5125920;27;27486;-55
2021/05/18 20:40:32;;;;;;;8.43;3.10;;;14.40;77.60;;;;;;5123898;27;28062;-56
2021/05/18 20:43:33;;;;;;;3.97;2.63;;;14.40;77.10;;;;;;5124172;27;27520;-56
2021/05/18 20:47:06;;;;;;;4.68;2.35;;;14.30;77.40;;;;;;5092300;27;27393;-53
2021/05/18 20:50:00;;;;;;;5.72;2.40;;;14.30;77.40;;;;;;5127184;27;27473;-54
2021/05/18 20:53:15;;;;;;;3.50;2.08;;;14.30;78.90;;;;;;5099942;27;27959;-56
2021/05/18 20:56:22;;;;;;;2.95;2.00;;;14.20;77.60;;;;;;5126922;27;27419;-55
2021/05/18 20:59:19;;;;;;;7.47;1.90;;;14.20;78.10;;;;;;5126762;27;27579;-56
2021/05/18 21:02:26;;;;;;;2.42;1.95;;;14.20;78.30;;;;;;5127226;27;27339;-54
2021/05/18 21:05:39;;;;;;;4.43;2.13;;;14.20;79.20;;;;;;5124914;27;27608;-56
2021/05/18 21:15:49;;;;;;;2.95;1.77;;;14.20;79.00;;;;;;5126095;27;28208;-56
2021/05/18 21:19:17;;;;;;;2.13;1.70;;;14.10;78.80;;;;;;5126884;27;27411;-56
2021/05/18 21:22:04;;;;;;;2.63;1.90;;;14.10;78.70;;;;;;5125787;27;27423;-56
2021/05/18 21:25:31;;;;;;;2.92;2.00;;;14.00;78.30;;;;;;5093585;27;27411;-56
2021/05/18 21:28:28;;;;;;;6.38;1.75;;;14.00;77.70;;;;;;5106974;27;27386;-55
2021/05/18 21:31:55;;;;;;;3.38;1.85;;;14.00;77.40;;;;;;5125476;27;27457;-55
2021/05/18 21:35:12;;;;;;;2.03;1.80;;;14.00;77.80;;;;;;5125355;27;27434;-55
2021/05/18 21:38:11;;;;;;;2.25;1.65;;;13.90;77.70;;;;;;5125616;27;27534;-56
2021/05/18 21:41:17;;;;;;;3.92;2.10;;;13.90;77.60;;;;;;5125777;27;27399;-55
2021/05/18 21:44:24;;;;;;;3.40;2.33;;;13.90;77.30;;;;;;5125206;27;27971;-56
2021/05/18 21:47:43;;;;;;;4.15;2.90;;;13.80;77.10;;;;;;5124957;27;27628;-56
2021/05/18 21:50:54;;;;;;;4.05;2.63;;;13.80;77.50;;;;;;5109932;27;27472;-56
2021/05/18 21:54:22;;;;;;;4.43;3.22;;;13.70;77.60;;;;;;5123791;27;27401;-56
2021/05/18 21:57:29;;;;;;;4.45;3.28;;;13.70;77.30;;;;;;5108820;27;27433;-55
2021/05/18 22:00:30;;;;;;;5.07;3.40;;;13.70;77.50;;;;;;5124582;27;27414;-55
2021/05/18 22:04:03;;;;;;;3.33;2.63;;;13.60;77.70;;;;;;5124749;27;27582;-56
2021/05/18 22:07:30;;;;;;;7.45;2.95;;;13.60;78.20;;;;;;5125064;27;27447;-55
2021/05/18 22:10:41;;;;;;;3.55;2.55;;;13.60;78.20;;;;;;5125197;27;27449;-55
2021/05/18 22:13:58;;;;;;;3.45;2.22;;;13.50;78.40;;;;;;5121969;27;27383;-57
2021/05/18 22:27:31;;;;;;;4.85;1.88;;;13.50;79.60;;;;;;5125028;27;27524;-56
2021/05/18 22:30:36;;;;;;;3.05;1.65;;;13.40;80.30;;;;;;5123894;27;27586;-53
2021/05/18 22:33:45;;;;;;;3.65;1.48;;;13.40;80.60;;;;;;5124583;27;27470;-56
2021/05/18 22:36:41;;;;;;;2.30;1.55;;;13.40;80.70;;;;;;5121270;27;27392;-56
2021/05/18 22:40:08;;;;;;;3.30;1.30;;;13.40;80.40;;;;;;5124771;27;27376;-52
2021/05/18 22:43:12;;;;;;;2.05;1.10;;;13.40;80.40;;;;;;5123847;27;27651;-56
2021/05/18 22:46:17;;;;;;;4.03;1.27;;;13.40;80.40;;;;;;5124724;27;27312;-56